createdAt,value
2024-03-12T00:00:47.015Z,92.37
2024-03-12T00:01:48.292Z,92.68
2024-03-12T00:02:46.850Z,92.78
2024-03-12T00:03:46.959Z,92.47
2024-03-12T00:04:46.886Z,92.47
2024-03-12T00:06:07.856Z,92.88
2024-03-12T00:06:53.550Z,92.57
2024-03-12T00:07:48.016Z,92.16
2024-03-12T00:09:09.417Z,92.22
2024-03-12T00:09:47.401Z,92.22
2024-03-12T00:10:47.367Z,92.02
2024-03-12T00:11:58.448Z,91.91
2024-03-12T00:12:46.862Z,91.91
2024-03-12T00:13:47.971Z,91.81
2024-03-12T00:14:50.695Z,91.71
2024-03-12T00:16:09.601Z,91.50
2024-03-12T00:16:54.462Z,91.60
2024-03-12T00:17:47.487Z,91.50
2024-03-12T00:18:50.977Z,91.81
2024-03-12T00:19:51.191Z,91.71
2024-03-12T00:20:46.998Z,91.40
2024-03-12T00:21:49.433Z,91.30
2024-03-12T00:22:47.451Z,91.19
2024-03-12T00:23:46.781Z,91.30
2024-03-12T00:24:46.639Z,91.30
2024-03-12T00:25:47.971Z,91.19
2024-03-12T00:26:49.152Z,91.05
2024-03-12T00:27:46.589Z,91.15
2024-03-12T00:28:53.436Z,91.25
2024-03-12T00:29:46.872Z,91.40
2024-03-12T00:30:47.389Z,91.36
2024-03-12T00:31:47.878Z,91.36
2024-03-12T00:32:50.402Z,91.30
2024-03-12T00:33:50.033Z,91.56
2024-03-12T00:34:46.815Z,91.77
2024-03-12T00:35:47.575Z,91.97
2024-03-12T00:36:46.699Z,91.56
2024-03-12T00:38:08.224Z,91.25
2024-03-12T00:40:04.545Z,91.36
2024-03-12T00:41:00.746Z,91.46
2024-03-12T00:42:00.431Z,91.15
2024-03-12T00:42:58.518Z,91.15
2024-03-12T00:44:01.374Z,91.25
2024-03-12T00:44:58.084Z,91.46
2024-03-12T00:45:58.055Z,91.25
2024-03-12T00:46:59.408Z,90.94
2024-03-12T00:47:58.609Z,90.84
2024-03-12T00:48:59.849Z,91.15
2024-03-12T00:49:59.736Z,91.25
2024-03-12T00:50:58.386Z,91.46
2024-03-12T00:51:58.673Z,91.25
2024-03-12T00:52:59.718Z,91.05
2024-03-12T00:53:58.862Z,91.05
2024-03-12T00:54:59.088Z,91.25
2024-03-12T00:56:04.592Z,91.15
2024-03-12T00:57:01.115Z,90.94
2024-03-12T00:58:02.032Z,90.94
2024-03-12T00:58:58.606Z,90.73
2024-03-12T00:59:57.337Z,90.73
2024-03-12T01:01:16.862Z,90.53
2024-03-12T01:01:58.443Z,90.64
2024-03-12T01:02:58.976Z,90.64
2024-03-12T01:04:02.012Z,90.73
2024-03-12T01:04:58.529Z,90.84
2024-03-12T01:06:04.239Z,90.73
2024-03-12T01:06:57.964Z,90.84
2024-03-12T01:07:57.295Z,91.05
2024-03-12T01:08:59.528Z,90.73
2024-03-12T01:09:57.445Z,90.53
2024-03-12T01:10:57.619Z,90.84
2024-03-12T01:12:03.891Z,90.94
2024-03-12T01:13:00.845Z,90.84
2024-03-12T01:13:57.844Z,90.64
2024-03-12T01:14:57.989Z,90.73
2024-03-12T01:16:00.358Z,90.90
2024-03-12T01:16:57.895Z,90.73
2024-03-12T01:17:58.828Z,90.53
2024-03-12T01:18:59.880Z,90.53
2024-03-12T01:19:59.922Z,90.64
2024-03-12T01:21:18.944Z,90.73
2024-03-12T01:21:57.077Z,90.73
2024-03-12T01:23:01.095Z,90.94
2024-03-12T01:23:57.664Z,91.05
2024-03-12T01:24:57.182Z,91.05
2024-03-12T01:26:05.264Z,90.84
2024-03-12T01:27:03.148Z,90.84
2024-03-12T01:27:57.591Z,91.05
2024-03-12T01:28:57.754Z,91.15
2024-03-12T01:29:57.944Z,90.73
2024-03-12T01:30:57.452Z,90.73
2024-03-12T01:31:57.332Z,90.84
2024-03-12T01:32:57.977Z,90.53
2024-03-12T01:33:57.026Z,90.64
2024-03-12T01:34:58.167Z,90.94
2024-03-12T01:35:58.373Z,91.05
2024-03-12T01:36:57.951Z,91.36
2024-03-12T01:38:01.006Z,91.46
2024-03-12T01:38:57.955Z,91.36
2024-03-12T01:40:05.169Z,91.46
2024-03-12T01:40:57.152Z,91.66
2024-03-12T01:41:57.040Z,92.29
2024-03-12T01:42:58.533Z,92.33
2024-03-12T01:43:58.034Z,91.97
2024-03-12T01:45:00.258Z,92.08
2024-03-12T01:45:57.108Z,92.22
2024-03-12T01:46:58.893Z,92.22
2024-03-12T01:47:58.980Z,92.22
2024-03-12T01:48:58.106Z,92.08
2024-03-12T01:49:56.955Z,92.12
2024-03-12T01:51:03.406Z,91.97
2024-03-12T01:52:12.318Z,92.08
2024-03-12T01:52:57.168Z,91.87
2024-03-12T01:53:56.854Z,91.56
2024-03-12T01:54:57.107Z,91.56
2024-03-12T01:55:58.282Z,91.66
2024-03-12T01:56:56.714Z,91.66
2024-03-12T01:57:58.677Z,91.66
2024-03-12T01:58:56.779Z,91.66
2024-03-12T01:59:56.783Z,91.56
2024-03-12T02:00:58.450Z,91.56
2024-03-12T02:01:57.035Z,91.77
2024-03-12T02:02:57.558Z,91.77
2024-03-12T02:04:12.548Z,91.36
2024-03-12T02:04:56.870Z,91.05
2024-03-12T02:05:56.799Z,91.25
2024-03-12T02:06:57.987Z,91.15
2024-03-12T02:08:00.777Z,91.15
2024-03-12T02:08:57.089Z,91.25
2024-03-12T02:09:59.605Z,91.36
2024-03-12T02:11:01.075Z,91.46
2024-03-12T02:11:56.616Z,90.94
2024-03-12T02:12:58.583Z,90.64
2024-03-12T02:14:11.506Z,90.53
2024-03-12T02:14:56.762Z,90.73
2024-03-12T02:15:57.023Z,90.73
2024-03-12T02:16:58.951Z,90.64
2024-03-12T02:17:57.070Z,90.84
2024-03-12T02:18:57.465Z,90.88
2024-03-12T02:19:57.122Z,90.78
2024-03-12T02:20:58.127Z,90.88
2024-03-12T02:22:02.783Z,90.99
2024-03-12T02:23:01.535Z,90.78
2024-03-12T02:23:59.844Z,90.88
2024-03-12T02:25:04.703Z,90.78
2024-03-12T02:25:56.545Z,90.67
2024-03-12T02:26:56.702Z,90.57
2024-03-12T02:27:56.401Z,90.88
2024-03-12T02:28:57.025Z,90.88
2024-03-12T02:30:01.383Z,90.78
2024-03-12T02:30:57.606Z,90.78
2024-03-12T02:31:56.546Z,90.99
2024-03-12T02:32:56.538Z,90.78
2024-03-12T02:34:04.335Z,90.67
2024-03-12T02:34:56.852Z,90.88
2024-03-12T02:36:00.393Z,90.78
2024-03-12T02:37:03.544Z,90.88
2024-03-12T02:37:57.881Z,90.47
2024-03-12T02:38:56.437Z,90.47
2024-03-12T02:39:59.095Z,90.37
2024-03-12T02:40:57.453Z,90.26
2024-03-12T02:42:10.827Z,90.57
2024-03-12T02:42:56.493Z,90.26
2024-03-12T02:43:56.623Z,90.37
2024-03-12T02:45:03.321Z,90.67
2024-03-12T02:45:58.154Z,90.47
2024-03-12T02:46:57.977Z,90.57
2024-03-12T02:47:57.732Z,90.26
2024-03-12T02:48:59.034Z,90.57
2024-03-12T02:49:57.052Z,90.67
2024-03-12T02:51:10.669Z,90.47
2024-03-12T02:51:56.365Z,90.26
2024-03-12T02:52:58.469Z,90.47
2024-03-12T02:53:56.324Z,90.78
2024-03-12T02:54:57.098Z,90.88
2024-03-12T02:55:56.187Z,90.67
2024-03-12T02:56:58.217Z,90.78
2024-03-12T02:57:57.913Z,90.67
2024-03-12T02:58:56.462Z,90.88
2024-03-12T02:59:56.074Z,90.99
2024-03-12T03:00:57.049Z,91.09
2024-03-12T03:01:56.794Z,91.30
2024-03-12T03:03:03.241Z,91.50
2024-03-12T03:03:57.227Z,91.50
2024-03-12T03:04:57.332Z,91.50
2024-03-12T03:05:58.923Z,91.30
2024-03-12T03:06:57.577Z,91.40
2024-03-12T03:07:56.206Z,91.50
2024-03-12T03:08:56.311Z,91.81
2024-03-12T03:09:59.191Z,92.12
2024-03-12T03:11:00.079Z,92.43
2024-03-12T03:11:56.823Z,92.74
2024-03-12T03:12:56.766Z,93.15
2024-03-12T03:13:56.197Z,93.46
2024-03-12T03:14:56.991Z,93.98
2024-03-12T03:15:56.992Z,94.08
2024-03-12T03:16:59.293Z,94.49
2024-03-12T03:17:58.967Z,95.52
2024-03-12T03:18:55.984Z,95.31
2024-03-12T03:19:56.963Z,95.21
2024-03-12T03:20:56.589Z,95.73
2024-03-12T03:21:56.071Z,96.14
2024-03-12T03:22:56.274Z,97.06
2024-03-12T03:23:55.876Z,97.68
2024-03-12T03:24:58.201Z,98.10
2024-03-12T03:25:56.875Z,98.41
2024-03-12T03:26:55.904Z,98.45
2024-03-12T03:27:56.038Z,98.92
2024-03-12T03:28:56.456Z,99.07
2024-03-12T03:29:56.417Z,99.58
2024-03-12T03:30:55.727Z,99.58
2024-03-12T03:31:58.369Z,99.69
2024-03-12T03:32:55.751Z,99.90
2024-03-12T03:33:56.988Z,99.90
2024-03-12T03:34:55.775Z,99.79
2024-03-12T03:35:56.128Z,99.90
2024-03-12T03:36:56.028Z,99.99
2024-03-12T03:37:57.063Z,99.99
2024-03-12T03:38:55.875Z,99.99
2024-03-12T03:40:02.538Z,99.99
2024-03-12T03:40:57.000Z,99.99
2024-03-12T03:41:55.773Z,99.99
2024-03-12T03:42:56.507Z,99.99
2024-03-12T03:43:55.970Z,99.99
2024-03-12T03:44:56.561Z,99.90
2024-03-12T03:45:55.956Z,99.90
2024-03-12T03:46:57.584Z,99.99
2024-03-12T03:47:55.571Z,99.99
2024-03-12T03:48:58.045Z,99.99
2024-03-12T03:49:57.361Z,99.99
2024-03-12T03:50:55.684Z,99.99
2024-03-12T03:51:55.486Z,99.99
2024-03-12T03:52:56.505Z,99.99
2024-03-12T03:53:56.549Z,99.99
2024-03-12T03:54:55.484Z,99.99
2024-03-12T03:55:55.458Z,99.99
2024-03-12T03:56:56.719Z,99.99
2024-03-12T03:57:55.516Z,99.99
2024-03-12T03:58:56.517Z,99.99
2024-03-12T03:59:55.377Z,99.99
2024-03-12T04:00:56.743Z,99.99
2024-03-12T04:01:55.892Z,99.99
2024-03-12T04:02:57.515Z,99.99
2024-03-12T04:03:55.418Z,99.99
2024-03-12T04:04:56.497Z,99.99
2024-03-12T04:05:56.430Z,99.99
2024-03-12T04:06:56.346Z,99.99
2024-03-12T04:07:56.629Z,99.99
2024-03-12T04:08:55.998Z,99.99
2024-03-12T04:09:55.325Z,99.99
2024-03-12T04:10:56.166Z,99.99
2024-03-12T04:11:56.320Z,99.99
2024-03-12T04:12:56.020Z,99.99
2024-03-12T04:13:55.309Z,99.99
2024-03-12T04:14:55.193Z,99.99
2024-03-12T04:15:55.387Z,99.99
2024-03-12T04:16:56.469Z,99.99
2024-03-12T04:17:55.733Z,99.99
2024-03-12T04:18:56.922Z,99.99
2024-03-12T04:19:57.349Z,99.99
2024-03-12T04:20:59.020Z,99.99
2024-03-12T04:21:55.259Z,99.99
2024-03-12T04:22:55.993Z,99.99
2024-03-12T04:23:56.612Z,99.99
2024-03-12T04:24:55.474Z,99.99
2024-03-12T04:28:23.479Z,99.99
2024-03-12T04:29:04.137Z,99.99
2024-03-12T04:30:06.298Z,99.99
2024-03-12T04:31:03.269Z,99.99
2024-03-12T04:32:03.911Z,99.99
2024-03-12T04:33:03.624Z,99.99
2024-03-12T04:34:05.617Z,99.99
2024-03-12T04:35:02.441Z,99.99
2024-03-12T04:36:04.576Z,99.99
2024-03-12T04:37:05.928Z,99.99
2024-03-12T04:38:04.005Z,99.99
2024-03-12T04:39:04.098Z,99.99
2024-03-12T04:40:02.191Z,99.99
2024-03-12T04:41:09.869Z,99.99
2024-03-12T04:42:03.856Z,99.99
2024-03-12T04:43:03.366Z,99.99
2024-03-12T04:44:04.756Z,99.99
2024-03-12T04:45:04.729Z,99.99
2024-03-12T04:46:05.209Z,99.99
2024-03-12T04:47:08.050Z,99.99
2024-03-12T04:48:04.072Z,99.99
2024-03-12T04:49:02.954Z,99.99
2024-03-12T04:50:07.231Z,99.99
2024-03-12T04:51:03.071Z,99.99
2024-03-12T04:52:02.301Z,99.99
2024-03-12T04:53:02.074Z,99.99
2024-03-12T04:54:01.937Z,99.99
2024-03-12T04:55:02.159Z,99.99
2024-03-12T04:56:02.760Z,99.99
2024-03-12T04:57:01.928Z,99.99
2024-03-12T04:58:01.941Z,99.99
2024-03-12T04:59:01.966Z,99.99
2024-03-12T05:00:01.908Z,99.99
2024-03-12T05:01:06.683Z,99.99
2024-03-12T05:02:16.764Z,99.99
2024-03-12T05:03:03.560Z,99.99
2024-03-12T05:04:08.481Z,99.99
2024-03-12T05:05:02.012Z,99.99
2024-03-12T05:06:06.983Z,99.99
2024-03-12T05:07:01.852Z,99.99
2024-03-12T05:08:03.022Z,99.99
2024-03-12T05:09:06.979Z,99.99
2024-03-12T05:10:02.370Z,99.99
2024-03-12T05:11:06.305Z,99.99
2024-03-12T05:12:02.789Z,99.99
2024-03-12T05:13:01.915Z,99.99
2024-03-12T05:17:00.956Z,99.99
2024-03-12T05:18:00.044Z,99.99
2024-03-12T05:18:59.834Z,99.99
2024-03-12T05:20:00.592Z,99.99
2024-03-12T05:20:59.876Z,99.99
2024-03-12T05:22:06.530Z,99.99
2024-03-12T05:23:00.526Z,99.99
2024-03-12T05:23:59.783Z,99.99
2024-03-12T05:25:00.561Z,99.99
2024-03-12T05:26:00.746Z,99.99
2024-03-12T05:27:01.871Z,99.99
2024-03-12T05:27:59.664Z,99.99
2024-03-12T05:28:59.939Z,99.99
2024-03-12T05:29:59.522Z,99.99
2024-03-12T05:31:00.373Z,99.99
2024-03-12T05:31:59.879Z,99.99
2024-03-12T05:33:00.501Z,99.99
2024-03-12T05:33:59.552Z,99.99
2024-03-12T05:34:59.635Z,99.99
2024-03-12T05:35:59.997Z,99.99
2024-03-12T05:37:03.262Z,99.99
2024-03-12T05:38:03.157Z,99.99
2024-03-12T05:38:59.833Z,99.99
2024-03-12T05:40:00.533Z,99.99
2024-03-12T05:41:01.005Z,99.99
2024-03-12T05:41:59.423Z,99.99
2024-03-12T05:43:00.483Z,99.99
2024-03-12T05:43:59.500Z,99.99
2024-03-12T05:45:00.588Z,99.99
2024-03-12T05:46:00.148Z,99.99
2024-03-12T05:46:59.395Z,99.99
2024-03-12T05:49:04.223Z,99.99
2024-03-12T05:50:17.036Z,99.99
2024-03-12T05:51:04.023Z,99.99
2024-03-12T05:52:29.234Z,99.99
2024-03-12T05:53:04.248Z,99.99
2024-03-12T05:54:03.396Z,99.99
2024-03-12T05:55:03.721Z,99.99
2024-03-12T05:56:03.037Z,99.99
2024-03-12T05:57:03.602Z,99.99
2024-03-12T05:58:03.670Z,99.99
2024-03-12T05:59:04.865Z,99.99
2024-03-12T06:00:03.718Z,99.99
2024-03-12T06:01:03.195Z,99.99
2024-03-12T06:02:02.901Z,99.99
2024-03-12T06:03:24.778Z,99.99
2024-03-12T06:04:07.550Z,99.99
2024-03-12T06:05:03.403Z,99.99
2024-03-12T06:06:02.982Z,99.99
2024-03-12T06:07:20.812Z,99.99
2024-03-12T06:08:04.604Z,99.99
2024-03-12T06:09:03.107Z,99.99
2024-03-12T06:10:03.223Z,99.99
2024-03-12T06:11:03.787Z,99.99
2024-03-12T06:12:02.735Z,99.99
2024-03-12T06:13:07.509Z,99.99
2024-03-12T06:14:04.458Z,99.99
2024-03-12T06:15:02.783Z,99.99
2024-03-12T06:16:02.735Z,99.99
2024-03-12T06:17:03.639Z,99.99
2024-03-12T06:18:02.952Z,99.99
2024-03-12T06:19:04.213Z,99.99
2024-03-12T06:20:02.682Z,99.99
2024-03-12T06:21:02.923Z,99.99
2024-03-12T06:22:04.048Z,99.99
2024-03-12T06:23:03.528Z,99.99
2024-03-12T06:24:03.677Z,99.99
2024-03-12T06:25:02.631Z,99.99
2024-03-12T06:26:06.397Z,99.99
2024-03-12T06:27:03.720Z,99.99
2024-03-12T06:28:03.979Z,99.99
2024-03-12T06:31:46.279Z,99.99
2024-03-12T06:32:50.710Z,99.99
2024-03-12T06:33:34.366Z,99.99
2024-03-12T06:34:25.511Z,99.99
2024-03-12T06:35:28.940Z,99.99
2024-03-12T06:36:34.149Z,99.99
2024-03-12T06:37:27.946Z,99.99
2024-03-12T06:38:29.660Z,99.99
2024-03-12T06:39:57.271Z,99.99
2024-03-12T06:40:29.997Z,99.99
2024-03-12T06:41:27.319Z,99.99
2024-03-12T06:42:26.179Z,99.99
2024-03-12T06:43:25.322Z,99.99
2024-03-12T06:44:25.485Z,99.99
2024-03-12T06:45:25.696Z,99.99
2024-03-12T06:46:25.259Z,99.99
2024-03-12T06:47:26.000Z,99.99
2024-03-12T06:48:25.195Z,99.99
2024-03-12T06:49:25.950Z,99.99
2024-03-12T06:50:25.258Z,99.99
2024-03-12T06:51:25.104Z,99.99
2024-03-12T06:52:25.084Z,99.99
2024-03-12T06:53:25.090Z,99.99
2024-03-12T06:54:25.086Z,99.99
2024-03-12T06:55:25.156Z,99.99
2024-03-12T06:56:25.171Z,99.99
2024-03-12T06:57:25.372Z,99.99
2024-03-12T06:58:25.014Z,99.99
2024-03-12T06:59:25.230Z,99.99
2024-03-12T07:00:25.146Z,99.99
2024-03-12T07:01:25.159Z,99.99
2024-03-12T07:02:24.969Z,99.99
2024-03-12T07:03:25.824Z,99.99
2024-03-12T07:04:26.636Z,99.99
2024-03-12T07:05:25.151Z,99.99
2024-03-12T07:06:25.195Z,99.99
2024-03-12T07:07:25.240Z,99.99
2024-03-12T07:08:24.977Z,99.99
2024-03-12T07:09:25.870Z,99.99
2024-03-12T07:10:25.089Z,99.99
2024-03-12T07:11:25.024Z,99.99
2024-03-12T07:12:25.350Z,99.99
2024-03-12T07:13:25.528Z,99.99
2024-03-12T07:14:24.946Z,99.99
2024-03-12T07:15:25.437Z,99.99
2024-03-12T07:16:24.845Z,99.99
2024-03-12T07:17:27.793Z,99.99
2024-03-12T07:18:25.079Z,99.99
2024-03-12T07:19:25.491Z,99.99
2024-03-12T07:20:25.978Z,99.99
2024-03-12T07:21:24.772Z,99.99
2024-03-12T07:22:25.334Z,99.99
2024-03-12T07:23:24.770Z,99.99
2024-03-12T07:24:24.724Z,99.99
2024-03-12T07:25:24.718Z,99.99
2024-03-12T07:26:26.453Z,99.99
2024-03-12T07:27:25.191Z,99.99
2024-03-12T07:28:26.013Z,99.99
2024-03-12T07:29:27.903Z,99.99
2024-03-12T07:30:24.680Z,99.99
2024-03-12T07:31:24.757Z,99.99
2024-03-12T07:32:24.850Z,99.99
2024-03-12T07:33:25.342Z,99.99
2024-03-12T07:34:25.022Z,99.99
2024-03-12T07:35:24.810Z,99.99
2024-03-12T07:36:24.663Z,99.99
2024-03-12T07:37:24.662Z,99.99
2024-03-12T07:38:25.567Z,99.99
2024-03-12T07:39:25.167Z,99.99
2024-03-12T07:40:25.616Z,99.99
2024-03-12T07:41:24.594Z,99.99
2024-03-12T07:42:24.898Z,99.99
2024-03-12T07:43:24.903Z,99.99
2024-03-12T07:44:25.910Z,99.99
2024-03-12T07:45:25.566Z,99.99
2024-03-12T07:46:26.553Z,99.99
2024-03-12T07:47:25.356Z,99.99
2024-03-12T07:48:24.739Z,99.99
2024-03-12T07:49:25.165Z,99.99
2024-03-12T07:50:25.266Z,99.99
2024-03-12T07:51:25.211Z,99.99
2024-03-12T07:52:25.623Z,99.99
2024-03-12T07:53:24.419Z,99.99
2024-03-12T07:54:24.464Z,99.99
2024-03-12T07:55:24.392Z,99.99
2024-03-12T07:56:24.412Z,99.99
2024-03-12T07:57:25.430Z,99.99
2024-03-12T07:58:24.415Z,99.99
2024-03-12T07:59:24.333Z,99.99
2024-03-12T08:00:24.343Z,99.99
2024-03-12T08:01:24.380Z,99.99
2024-03-12T08:02:24.368Z,99.99
2024-03-12T08:03:24.307Z,99.99
2024-03-12T08:04:25.458Z,99.99
2024-03-12T08:05:24.284Z,99.99
2024-03-12T08:06:24.355Z,99.99
2024-03-12T08:07:25.888Z,99.99
2024-03-12T08:08:25.280Z,99.99
2024-03-12T08:09:24.461Z,99.99
2024-03-12T08:10:24.325Z,99.99
2024-03-12T08:11:24.269Z,99.99
2024-03-12T08:12:24.283Z,99.99
2024-03-12T08:13:24.296Z,99.99
2024-03-12T08:14:24.198Z,99.99
2024-03-12T08:15:24.717Z,99.99
2024-03-12T08:16:24.310Z,99.99
2024-03-12T08:17:24.221Z,99.99
2024-03-12T08:19:53.338Z,99.99
2024-03-12T08:20:54.779Z,99.99
2024-03-12T08:21:56.977Z,99.99
2024-03-12T08:22:52.608Z,99.99
2024-03-12T08:23:52.661Z,99.99
2024-03-12T08:24:52.756Z,99.99
2024-03-12T08:25:56.658Z,99.99
2024-03-12T08:26:52.599Z,99.99
2024-03-12T08:27:52.572Z,99.99
2024-03-12T08:29:00.241Z,99.99
2024-03-12T08:29:53.426Z,99.99
2024-03-12T08:30:53.370Z,99.99
2024-03-12T08:31:59.433Z,99.99
2024-03-12T08:32:52.628Z,99.99
2024-03-12T08:35:05.714Z,99.99
2024-03-12T08:36:06.449Z,99.99
2024-03-12T08:37:04.724Z,99.99
2024-03-12T08:38:04.175Z,99.99
2024-03-12T08:39:04.156Z,99.99
2024-03-12T08:40:04.354Z,99.99
2024-03-12T08:41:04.104Z,99.99
2024-03-12T08:42:04.075Z,99.99
2024-03-12T08:43:07.199Z,99.99
2024-03-12T08:44:04.080Z,99.99
2024-03-12T08:45:04.121Z,99.99
2024-03-12T08:46:04.110Z,99.99
2024-03-12T08:47:04.021Z,99.99
2024-03-12T08:48:04.138Z,99.99
2024-03-12T08:49:04.154Z,99.99
2024-03-12T08:50:04.047Z,99.99
2024-03-12T08:51:03.988Z,99.99
2024-03-12T08:52:04.063Z,99.99
2024-03-12T08:53:04.566Z,99.99
2024-03-12T08:54:04.134Z,99.99
2024-03-12T08:55:07.381Z,99.99
2024-03-12T08:56:03.941Z,99.99
2024-03-12T08:57:04.060Z,99.99
2024-03-12T08:58:03.983Z,99.99
2024-03-12T08:59:03.924Z,99.99
2024-03-12T09:00:04.566Z,99.99
2024-03-12T09:01:04.651Z,99.99
2024-03-12T09:02:03.943Z,99.99
2024-03-12T09:03:03.917Z,99.99
2024-03-12T09:04:04.272Z,99.99
2024-03-12T09:05:03.840Z,99.99
2024-03-12T09:06:04.004Z,99.99
2024-03-12T09:07:03.951Z,99.99
2024-03-12T09:08:03.820Z,99.99
2024-03-12T09:09:03.796Z,99.99
2024-03-12T09:10:03.853Z,99.99
2024-03-12T09:11:03.986Z,99.99
2024-03-12T09:12:03.860Z,99.99
2024-03-12T09:13:04.020Z,99.99
2024-03-12T09:14:03.784Z,99.99
2024-03-12T09:15:03.729Z,99.99
2024-03-12T09:16:04.580Z,99.99
2024-03-12T09:17:03.704Z,99.99
2024-03-12T09:18:03.725Z,99.99
2024-03-12T09:19:03.737Z,99.99
2024-03-12T09:20:03.793Z,99.99
2024-03-12T09:21:03.652Z,99.99
2024-03-12T09:22:03.834Z,99.99
2024-03-12T09:23:03.689Z,99.99
2024-03-12T09:24:03.689Z,99.99
2024-03-12T09:25:03.698Z,99.99
2024-03-12T09:26:05.049Z,99.99
2024-03-12T09:27:03.697Z,99.99
2024-03-12T09:28:04.594Z,99.99
2024-03-12T09:29:03.645Z,99.99
2024-03-12T09:30:03.665Z,99.99
2024-03-12T09:31:03.717Z,99.99
2024-03-12T09:32:03.562Z,99.99
2024-03-12T09:33:03.584Z,99.99
2024-03-12T09:34:03.608Z,99.99
2024-03-12T09:35:03.564Z,99.99
2024-03-12T09:36:03.544Z,99.99
2024-03-12T09:37:03.524Z,99.99
2024-03-12T09:38:03.516Z,99.99
2024-03-12T09:39:03.478Z,99.99
2024-03-12T09:40:03.548Z,99.99
2024-03-12T09:41:03.455Z,99.99
2024-03-12T09:42:04.945Z,99.99
2024-03-12T09:43:03.438Z,99.99
2024-03-12T09:44:06.610Z,99.99
2024-03-12T09:45:04.217Z,99.99
2024-03-12T09:46:03.541Z,99.99
2024-03-12T09:47:03.444Z,99.99
2024-03-12T09:48:04.860Z,99.99
2024-03-12T09:49:04.874Z,99.99
2024-03-12T09:50:06.994Z,99.99
2024-03-12T09:51:03.365Z,99.99
2024-03-12T09:52:04.378Z,99.99
2024-03-12T09:53:04.438Z,99.99
2024-03-12T09:54:03.500Z,99.99
2024-03-12T09:55:03.346Z,99.99
2024-03-12T09:56:05.486Z,99.99
2024-03-12T09:57:03.689Z,99.99
2024-03-12T09:58:03.425Z,99.99
2024-03-12T09:59:04.077Z,99.99
2024-03-12T10:00:03.266Z,99.99
2024-03-12T10:01:03.324Z,99.99
2024-03-12T10:02:05.671Z,99.99
2024-03-12T10:03:03.405Z,99.99
2024-03-12T10:04:03.295Z,99.99
2024-03-12T10:05:03.702Z,99.99
2024-03-12T10:06:03.160Z,99.99
2024-03-12T10:07:03.204Z,99.99
2024-03-12T10:08:06.820Z,99.99
2024-03-12T10:09:03.245Z,99.99
2024-03-12T10:10:03.228Z,99.99
2024-03-12T10:11:03.426Z,99.99
2024-03-12T10:12:03.262Z,99.99
2024-03-12T10:13:03.130Z,99.99
2024-03-12T10:14:05.647Z,99.99
2024-03-12T10:15:03.219Z,99.99
2024-03-12T10:16:03.165Z,99.99
2024-03-12T10:17:03.078Z,99.99
2024-03-12T10:18:03.341Z,99.99
2024-03-12T10:19:03.730Z,99.99
2024-03-12T10:20:04.538Z,99.99
2024-03-12T10:21:04.155Z,99.99
2024-03-12T10:22:03.813Z,99.99
2024-03-12T10:23:03.391Z,99.99
2024-03-12T10:24:03.011Z,99.99
2024-03-12T10:25:03.025Z,99.99
2024-03-12T10:27:02.984Z,99.99
2024-03-12T10:28:07.976Z,99.99
2024-03-12T10:29:02.949Z,99.99
2024-03-12T10:30:02.911Z,99.99
2024-03-12T10:31:03.189Z,99.99
2024-03-12T10:32:05.730Z,99.99
2024-03-12T10:33:02.941Z,99.99
2024-03-12T10:34:02.958Z,99.99
2024-03-12T10:35:02.928Z,99.99
2024-03-12T10:36:02.864Z,99.99
2024-03-12T10:37:02.929Z,99.99
2024-03-12T10:38:05.499Z,99.99
2024-03-12T10:39:09.838Z,99.99
2024-03-12T10:40:03.655Z,99.99
2024-03-12T10:41:02.898Z,99.99
2024-03-12T10:42:02.898Z,99.99
2024-03-12T10:43:03.448Z,99.99
2024-03-12T10:44:05.500Z,99.99
2024-03-12T10:45:02.946Z,99.99
2024-03-12T10:46:03.133Z,99.99
2024-03-12T10:47:04.544Z,99.99
2024-03-12T10:48:03.028Z,99.99
2024-03-12T10:49:02.763Z,99.99
2024-03-12T10:50:02.907Z,99.99
2024-03-12T10:51:02.698Z,99.99
2024-03-12T10:52:02.790Z,99.99
2024-03-12T10:53:02.655Z,99.99
2024-03-12T10:54:02.670Z,99.99
2024-03-12T10:55:09.560Z,99.99
2024-03-12T10:56:05.588Z,99.99
2024-03-12T10:57:02.625Z,99.99
2024-03-12T10:58:02.674Z,99.99
2024-03-12T10:59:03.294Z,99.99
2024-03-12T11:00:05.716Z,99.99
2024-03-12T11:01:02.666Z,99.99
2024-03-12T11:02:05.176Z,99.99
2024-03-12T11:03:02.564Z,99.99
2024-03-12T11:04:03.256Z,99.99
2024-03-12T11:05:02.610Z,99.99
2024-03-12T11:06:02.518Z,99.99
2024-03-12T11:07:02.510Z,99.99
2024-03-12T11:08:04.762Z,99.99
2024-03-12T11:09:10.741Z,99.99
2024-03-12T11:10:02.659Z,99.99
2024-03-12T11:11:04.355Z,99.99
2024-03-12T11:12:02.453Z,99.99
2024-03-12T11:13:02.607Z,99.99
2024-03-12T11:14:04.329Z,99.99
2024-03-12T11:15:02.499Z,99.99
2024-03-12T11:16:02.590Z,99.99
2024-03-12T11:17:05.806Z,99.99
2024-03-12T11:18:02.532Z,99.99
2024-03-12T11:19:02.568Z,99.99
2024-03-12T11:20:03.653Z,99.99
2024-03-12T11:21:02.430Z,99.99
2024-03-12T11:22:03.313Z,99.99
2024-03-12T11:23:02.706Z,99.99
2024-03-12T11:24:02.304Z,99.99
2024-03-12T11:25:02.385Z,99.99
2024-03-12T11:26:04.039Z,99.99
2024-03-12T11:27:02.820Z,99.99
2024-03-12T11:28:02.367Z,99.99
2024-03-12T11:29:06.798Z,99.99
2024-03-12T11:30:02.296Z,99.99
2024-03-12T11:31:02.349Z,99.99
2024-03-12T11:32:02.367Z,99.99
2024-03-12T11:33:03.019Z,99.99
2024-03-12T11:34:02.239Z,99.99
2024-03-12T11:35:02.208Z,99.99
2024-03-12T11:36:02.190Z,99.99
2024-03-12T11:37:02.267Z,99.99
2024-03-12T11:38:02.174Z,99.99
2024-03-12T11:39:02.233Z,99.99
2024-03-12T11:40:02.214Z,99.99
2024-03-12T11:41:02.800Z,99.99
2024-03-12T11:42:04.010Z,99.99
2024-03-12T11:43:02.154Z,99.99
2024-03-12T11:44:02.422Z,99.99
2024-03-12T11:45:02.338Z,99.99
2024-03-12T11:46:02.203Z,99.99
2024-03-12T11:47:02.151Z,99.99
2024-03-12T11:48:02.762Z,99.99
2024-03-12T11:49:02.232Z,99.99
2024-03-12T11:50:04.568Z,99.99
2024-03-12T11:51:02.090Z,99.99
2024-03-12T11:52:02.078Z,99.99
2024-03-12T11:53:02.027Z,99.99
2024-03-12T11:54:02.057Z,99.99
2024-03-12T11:55:02.333Z,99.99
2024-03-12T11:56:04.863Z,99.99
2024-03-12T11:57:02.043Z,99.99
2024-03-12T11:58:02.832Z,99.99
2024-03-12T11:59:05.969Z,99.99
2024-03-12T12:00:01.938Z,99.99
2024-03-12T12:01:02.044Z,99.99
2024-03-12T12:02:04.005Z,99.99
2024-03-12T12:03:01.897Z,99.99
2024-03-12T12:04:02.104Z,99.99
2024-03-12T12:05:01.965Z,99.99
2024-03-12T12:06:01.870Z,99.99
2024-03-12T12:07:02.004Z,99.99
2024-03-12T12:08:02.579Z,99.99
2024-03-12T12:09:01.965Z,99.99
2024-03-12T12:10:01.929Z,99.99
2024-03-12T12:11:02.110Z,99.99
2024-03-12T12:12:02.703Z,99.99
2024-03-12T12:13:01.838Z,99.99
2024-03-12T12:14:03.693Z,99.99
2024-03-12T12:15:01.960Z,99.99
2024-03-12T12:16:01.870Z,99.99
2024-03-12T12:17:01.767Z,99.99
2024-03-12T12:18:01.903Z,99.99
2024-03-12T12:19:01.962Z,99.99
2024-03-12T12:20:02.917Z,99.99
2024-03-12T12:21:01.767Z,99.99
2024-03-12T12:22:01.864Z,99.99
2024-03-12T12:23:02.110Z,99.99
2024-03-12T12:24:03.971Z,99.99
2024-03-12T12:25:01.768Z,99.99
2024-03-12T12:26:01.734Z,99.99
2024-03-12T12:27:01.901Z,99.99
2024-03-12T12:28:02.077Z,99.99
2024-03-12T12:29:02.028Z,99.99
2024-03-12T12:32:19.545Z,99.99
2024-03-12T12:33:11.735Z,99.99
2024-03-12T12:34:11.977Z,99.99
2024-03-12T12:35:11.027Z,99.99
2024-03-12T12:36:10.975Z,99.99
2024-03-12T12:37:11.096Z,99.99
2024-03-12T12:38:10.992Z,99.99
2024-03-12T12:39:12.186Z,99.99
2024-03-12T12:40:11.186Z,99.99
2024-03-12T12:41:10.989Z,99.99
2024-03-12T12:42:12.363Z,99.99
2024-03-12T12:43:11.033Z,99.99
2024-03-12T12:44:11.255Z,99.99
2024-03-12T12:45:10.900Z,99.99
2024-03-12T12:46:10.997Z,99.99
2024-03-12T12:47:10.934Z,99.99
2024-03-12T12:48:10.897Z,99.99
2024-03-12T12:49:11.867Z,99.99
2024-03-12T12:50:21.844Z,99.99
2024-03-12T12:51:11.973Z,99.99
2024-03-12T12:52:12.899Z,99.99
2024-03-12T12:53:10.885Z,99.99
2024-03-12T12:54:11.786Z,99.99
2024-03-12T12:55:11.810Z,99.99
2024-03-12T12:56:11.241Z,99.99
2024-03-12T12:57:10.790Z,99.99
2024-03-12T12:58:10.785Z,99.99
2024-03-12T12:59:11.616Z,99.99
2024-03-12T13:00:11.387Z,99.99
2024-03-12T13:01:11.001Z,99.99
2024-03-12T13:02:10.973Z,99.99
2024-03-12T13:03:11.383Z,99.99
2024-03-12T13:04:10.829Z,99.99
2024-03-12T13:05:11.379Z,99.99
2024-03-12T13:06:11.456Z,99.99
2024-03-12T13:07:10.777Z,99.99
2024-03-12T13:08:11.618Z,99.99